Rencona, New Mexico
Current Conditions -  °F | °C
As of 4:53 AM on Friday 28 Nov 2014 (Local Time) from KCQC Reporting Station
Clear Clear  
Wind Chill: 27°   Ceiling: Unl
Heat Index: 37°   Visibility: 10mi
Dew Point: 18°   Wind: 18mph
Humidity: 46%   Direction: 300°WNW
Pressure: 30.24"   Gusts: NA
Location:  35.3026°N, 105.662°W
Report Text: KCQC 281153Z AUTO 30016KT 10SM CLR 03/M08 A3024 RMK AO2 SLP213 T00281078 10033 20006 58015
Loading
Personal Weather Stations






























Interactive Weather Map New forecast layout! Learn more

10-Day Weather Forecast

Advertisements
Track Severe Weather on mobile